createdAt,value
2019-01-05T00:02:15.905Z,93.00
2019-01-05T00:04:55.054Z,93.10
2019-01-05T00:07:28.101Z,93.06
2019-01-05T00:10:07.131Z,93.04
2019-01-05T00:12:42.856Z,93.08
2019-01-05T00:15:13.030Z,93.17
2019-01-05T00:17:55.655Z,93.21
2019-01-05T00:20:42.545Z,93.17
2019-01-05T00:23:22.253Z,93.06
2019-01-05T00:25:52.436Z,92.95
2019-01-05T00:28:39.622Z,92.95
2019-01-05T00:31:09.826Z,92.90
2019-01-05T00:33:59.555Z,92.83
2019-01-05T00:36:36.633Z,92.79
2019-01-05T00:39:11.297Z,92.83
2019-01-05T00:41:42.932Z,92.83
2019-01-05T00:44:13.151Z,92.84
2019-01-05T00:47:03.289Z,92.91
2019-01-05T00:49:50.969Z,92.99
2019-01-05T00:52:39.990Z,93.00
2019-01-05T00:55:28.833Z,92.94
2019-01-05T00:58:16.910Z,92.96
2019-01-05T01:00:47.244Z,93.01
2019-01-05T01:03:35.671Z,93.25
2019-01-05T01:06:21.943Z,93.40
2019-01-05T01:09:08.800Z,93.48
2019-01-05T01:11:41.945Z,93.49
2019-01-05T01:14:21.182Z,93.58
2019-01-05T01:17:07.808Z,93.62
2019-01-05T01:19:44.109Z,93.69
2019-01-05T01:22:14.500Z,93.56
2019-01-05T01:24:50.714Z,93.67
2019-01-05T01:27:30.474Z,93.77
2019-01-05T01:30:09.899Z,93.89
2019-01-05T01:32:45.784Z,93.87
2019-01-05T01:35:18.674Z,93.85
2019-01-05T01:38:17.552Z,93.98
2019-01-05T01:41:04.219Z,94.01
2019-01-05T01:43:34.371Z,93.99
2019-01-05T01:46:08.103Z,94.04
2019-01-05T01:48:38.639Z,93.92
2019-01-05T01:51:10.294Z,94.08
2019-01-05T01:53:58.722Z,94.14
2019-01-05T01:56:39.129Z,94.20
2019-01-05T01:59:14.942Z,94.12
2019-01-05T02:01:48.788Z,94.19
2019-01-05T02:04:19.403Z,94.17
2019-01-05T02:07:07.708Z,94.11
2019-01-05T02:09:39.698Z,94.20
2019-01-05T02:12:28.987Z,94.21
2019-01-05T02:15:13.767Z,94.18
2019-01-05T02:17:44.916Z,94.27
2019-01-05T02:20:36.066Z,94.44
2019-01-05T02:23:40.714Z,94.52
2019-01-05T02:26:22.742Z,94.55
2019-01-05T02:29:38.448Z,94.51
2019-01-05T02:32:36.619Z,94.53
2019-01-05T02:35:38.616Z,94.39
2019-01-05T02:38:20.544Z,94.47
2019-01-05T02:41:21.526Z,94.42
2019-01-05T02:44:15.904Z,94.40
2019-01-05T02:47:13.892Z,94.40
2019-01-05T02:50:09.313Z,94.58
2019-01-05T02:53:10.915Z,94.57
2019-01-05T02:56:06.408Z,94.62
2019-01-05T02:58:56.821Z,94.67
2019-01-05T03:01:50.678Z,94.76
2019-01-05T03:04:52.452Z,95.04
2019-01-05T03:07:49.262Z,95.09
2019-01-05T03:11:04.733Z,95.18
2019-01-05T03:14:06.823Z,95.20
2019-01-05T03:17:17.916Z,95.16
2019-01-05T03:19:59.973Z,95.15
2019-01-05T03:22:52.573Z,95.12
2019-01-05T03:25:46.584Z,95.22
2019-01-05T03:28:43.422Z,95.24
2019-01-05T03:31:55.828Z,95.19
2019-01-05T03:34:48.846Z,95.13
2019-01-05T03:37:53.613Z,94.98
2019-01-05T03:40:32.187Z,94.98
2019-01-05T03:43:31.127Z,95.17
2019-01-05T03:46:49.953Z,95.29
2019-01-05T03:49:40.850Z,95.39
2019-01-05T03:52:54.714Z,95.35
2019-01-05T03:55:54.257Z,95.40
2019-01-05T03:59:02.015Z,95.59
2019-01-05T04:02:06.537Z,95.76
2019-01-05T04:05:14.344Z,95.89
2019-01-05T04:08:19.138Z,96.05
2019-01-05T04:11:13.551Z,96.25
2019-01-05T04:14:01.354Z,96.36
2019-01-05T04:16:57.316Z,96.40
2019-01-05T04:20:16.171Z,96.42
2019-01-05T04:23:31.753Z,96.50
2019-01-05T04:26:22.304Z,96.58
2019-01-05T04:29:28.827Z,96.71
2019-01-05T04:32:18.026Z,96.77
2019-01-05T04:35:23.057Z,96.93
2019-01-05T04:38:28.750Z,97.03
2019-01-05T04:41:30.547Z,96.98
2019-01-05T04:44:24.030Z,97.09
2019-01-05T04:47:30.898Z,97.20
2019-01-05T04:50:06.868Z,97.17
2019-01-05T04:53:08.594Z,97.20
2019-01-05T04:56:08.766Z,97.29
2019-01-05T04:59:02.556Z,97.33
2019-01-05T05:01:47.654Z,97.42
2019-01-05T05:04:57.396Z,97.56
2019-01-05T05:07:49.853Z,97.58
2019-01-05T05:10:37.916Z,97.62
2019-01-05T05:13:46.619Z,97.65
2019-01-05T05:16:48.852Z,97.69
2019-01-05T05:19:33.911Z,97.69
2019-01-05T05:22:40.461Z,97.77
2019-01-05T05:25:48.428Z,97.83
2019-01-05T05:28:46.683Z,97.94
2019-01-05T05:31:56.091Z,97.94
2019-01-05T05:35:00.508Z,97.96
2019-01-05T05:38:08.132Z,97.99
2019-01-05T05:41:00.787Z,98.04
2019-01-05T05:44:15.758Z,98.15
2019-01-05T05:47:25.236Z,98.22
2019-01-05T05:50:24.029Z,98.28
2019-01-05T05:53:36.733Z,98.40
2019-01-05T05:56:27.776Z,98.45
2019-01-05T05:59:24.487Z,98.52
2019-01-05T06:02:03.345Z,98.60
2019-01-05T06:05:09.872Z,98.66
2019-01-05T06:08:13.332Z,98.72
2019-01-05T06:11:04.231Z,98.75
2019-01-05T06:14:06.004Z,98.76
2019-01-05T06:17:08.897Z,98.79
2019-01-05T06:20:00.046Z,98.88
2019-01-05T06:23:08.990Z,98.87
2019-01-05T06:26:10.640Z,98.93
2019-01-05T06:29:08.912Z,98.96
2019-01-05T06:32:04.490Z,98.95
2019-01-05T06:35:01.314Z,99.00
2019-01-05T06:37:52.406Z,99.00
2019-01-05T06:41:07.825Z,99.04
2019-01-05T06:43:49.765Z,98.99
2019-01-05T06:46:25.842Z,98.99
2019-01-05T06:49:28.736Z,98.99
2019-01-05T06:52:25.489Z,99.00
2019-01-05T06:55:19.968Z,99.05
2019-01-05T06:58:10.961Z,99.09
2019-01-05T07:01:12.361Z,99.12
2019-01-05T07:04:13.700Z,99.18
2019-01-05T07:07:01.630Z,99.17
2019-01-05T07:10:08.251Z,99.23
2019-01-05T07:13:18.649Z,99.29
2019-01-05T07:16:06.831Z,99.27
2019-01-05T07:18:59.072Z,99.21
2019-01-05T07:22:08.739Z,99.21
2019-01-05T07:25:08.602Z,99.20
2019-01-05T07:28:17.955Z,99.19
2019-01-05T07:31:06.194Z,99.14
2019-01-05T07:34:21.273Z,99.14
2019-01-05T07:37:18.845Z,99.04
2019-01-05T07:40:36.869Z,99.02
2019-01-05T07:43:34.323Z,98.93
2019-01-05T07:46:42.048Z,98.70
2019-01-05T07:49:59.739Z,98.64
2019-01-05T07:52:53.175Z,98.69
2019-01-05T07:56:07.387Z,98.74
2019-01-05T07:59:15.061Z,98.44
2019-01-05T08:02:10.945Z,98.16
2019-01-05T08:05:09.252Z,98.07
2019-01-05T08:07:54.313Z,97.91
2019-01-05T08:11:14.367Z,97.69
2019-01-05T08:14:02.262Z,97.46
2019-01-05T08:16:54.593Z,97.12
2019-01-05T08:19:44.359Z,96.76
2019-01-05T08:23:02.752Z,96.52
2019-01-05T08:26:07.637Z,96.48
2019-01-05T08:29:01.906Z,96.47
2019-01-05T08:31:37.745Z,96.38
2019-01-05T08:35:01.957Z,96.33
2019-01-05T08:38:27.915Z,96.29
2019-01-05T08:41:34.368Z,96.21
2019-01-05T08:44:30.230Z,96.09
2019-01-05T08:47:21.222Z,96.01
2019-01-05T08:50:13.781Z,96.09
2019-01-05T08:53:15.344Z,96.14
2019-01-05T08:56:07.976Z,96.23
2019-01-05T08:58:46.338Z,96.29
2019-01-05T09:01:46.472Z,96.43
2019-01-05T09:04:40.390Z,96.66
2019-01-05T09:07:34.564Z,96.76
2019-01-05T09:10:37.577Z,96.83
2019-01-05T09:13:19.534Z,96.77
2019-01-05T09:16:41.222Z,96.59
2019-01-05T09:19:35.614Z,96.34
2019-01-05T09:22:36.206Z,96.03
2019-01-05T09:25:50.256Z,96.05
2019-01-05T09:28:59.069Z,96.15
2019-01-05T09:31:40.843Z,96.01
2019-01-05T09:34:25.880Z,96.05
2019-01-05T09:37:36.522Z,95.96
2019-01-05T09:40:21.321Z,96.06
2019-01-05T09:43:25.045Z,96.07
2019-01-05T09:46:12.356Z,95.97
2019-01-05T09:49:15.869Z,96.13
2019-01-05T09:52:17.523Z,96.17
2019-01-05T09:55:15.936Z,96.03
2019-01-05T09:58:20.789Z,96.00
2019-01-05T10:01:14.591Z,95.94
2019-01-05T10:04:02.931Z,95.90
2019-01-05T10:06:38.786Z,95.76
2019-01-05T10:09:28.316Z,95.87
2019-01-05T10:12:13.175Z,95.88
2019-01-05T10:14:58.303Z,95.93
2019-01-05T10:17:53.485Z,96.01
2019-01-05T10:20:55.166Z,95.92
2019-01-05T10:23:56.752Z,95.92
2019-01-05T10:26:41.856Z,95.72
2019-01-05T10:29:39.627Z,95.58
2019-01-05T10:32:35.035Z,95.31
2019-01-05T10:35:31.905Z,95.37
2019-01-05T10:38:44.656Z,95.50
2019-01-05T10:41:52.558Z,95.52
2019-01-05T10:44:31.491Z,95.21
2019-01-05T10:47:31.505Z,95.30
2019-01-05T10:50:31.332Z,95.20
2019-01-05T10:53:49.336Z,95.29
2019-01-05T10:56:30.828Z,95.20
2019-01-05T10:59:32.228Z,95.11
2019-01-05T11:02:33.455Z,95.27
2019-01-05T11:05:35.170Z,95.34
2019-01-05T11:08:36.941Z,95.34
2019-01-05T11:11:34.401Z,95.41
2019-01-05T11:14:28.167Z,95.57
2019-01-05T11:17:22.267Z,95.70
2019-01-05T11:20:36.595Z,95.81
2019-01-05T11:23:27.463Z,95.80
2019-01-05T11:26:26.658Z,95.67
2019-01-05T11:29:34.719Z,95.59
2019-01-05T11:32:22.607Z,95.50
2019-01-05T11:35:21.444Z,95.43
2019-01-05T11:38:26.066Z,95.47
2019-01-05T11:41:17.122Z,95.54
2019-01-05T11:44:22.188Z,95.62
2019-01-05T11:47:17.897Z,95.79
2019-01-05T11:50:05.842Z,95.78
2019-01-05T11:53:07.251Z,95.70
2019-01-05T11:56:02.658Z,95.60
2019-01-05T11:59:16.539Z,95.42
2019-01-05T12:02:19.617Z,95.13
2019-01-05T12:05:11.905Z,95.01
2019-01-05T12:08:33.452Z,94.97
2019-01-05T12:11:43.058Z,95.07
2019-01-05T12:14:37.254Z,95.31
2019-01-05T12:17:37.551Z,95.44
2019-01-05T12:20:42.440Z,95.63
2019-01-05T12:23:27.437Z,95.68
2019-01-05T12:26:22.990Z,95.80
2019-01-05T12:29:13.949Z,95.57
2019-01-05T12:32:08.022Z,95.40
2019-01-05T12:35:15.895Z,95.38
2019-01-05T12:38:09.989Z,95.51
2019-01-05T12:41:14.481Z,95.29
2019-01-05T12:43:59.741Z,95.33
2019-01-05T12:46:52.151Z,95.44
2019-01-05T12:49:40.196Z,95.41
2019-01-05T12:52:49.622Z,95.42
2019-01-05T12:55:40.877Z,95.46
2019-01-05T12:58:42.217Z,95.27
2019-01-05T13:01:30.692Z,95.26
2019-01-05T13:04:32.651Z,95.42
2019-01-05T13:07:24.869Z,95.40
2019-01-05T13:10:20.479Z,95.20
2019-01-05T13:13:11.516Z,95.19
2019-01-05T13:16:08.574Z,94.85
2019-01-05T13:18:58.054Z,94.79
2019-01-05T13:21:56.298Z,94.77
2019-01-05T13:24:57.915Z,94.41
2019-01-05T13:27:45.865Z,94.24
2019-01-05T13:30:46.120Z,94.33
2019-01-05T13:33:51.019Z,94.42
2019-01-05T13:37:15.676Z,94.15
2019-01-05T13:40:13.037Z,93.63
2019-01-05T13:43:14.108Z,93.34
2019-01-05T13:46:15.888Z,93.21
2019-01-05T13:49:28.068Z,93.10
2019-01-05T13:52:18.664Z,93.25
2019-01-05T13:54:51.772Z,92.92
2019-01-05T13:57:24.312Z,92.87
2019-01-05T13:59:54.404Z,93.17
2019-01-05T14:02:40.757Z,93.44
2019-01-05T14:05:16.300Z,93.32
2019-01-05T14:08:02.609Z,93.30
2019-01-05T14:10:57.791Z,93.18
2019-01-05T14:13:44.233Z,92.89
2019-01-05T14:16:14.299Z,92.85
2019-01-05T14:18:47.386Z,92.42
2019-01-05T14:21:17.456Z,91.94
2019-01-05T14:24:04.206Z,91.75
2019-01-05T14:26:36.768Z,91.41
2019-01-05T14:29:13.107Z,91.39
2019-01-05T14:31:58.231Z,91.34
2019-01-05T14:34:34.247Z,91.19
2019-01-05T14:37:04.503Z,90.89
2019-01-05T14:39:51.068Z,91.00
2019-01-05T14:42:37.330Z,91.12
2019-01-05T14:45:18.395Z,91.24
2019-01-05T14:48:03.698Z,91.36
2019-01-05T14:50:33.813Z,91.50
2019-01-05T14:53:09.498Z,91.59
2019-01-05T14:55:39.534Z,91.62
2019-01-05T14:58:18.922Z,91.79
2019-01-05T15:00:51.901Z,91.88
2019-01-05T15:03:38.440Z,92.12
2019-01-05T15:06:20.222Z,91.87
2019-01-05T15:09:06.325Z,91.58
2019-01-05T15:11:42.438Z,91.73
2019-01-05T15:14:18.041Z,91.65
2019-01-05T15:17:04.051Z,91.55
2019-01-05T15:19:39.989Z,91.43
2019-01-05T15:22:12.789Z,91.36
2019-01-05T15:24:45.619Z,91.42
2019-01-05T15:27:31.887Z,91.54
2019-01-05T15:30:18.279Z,91.41
2019-01-05T15:32:48.474Z,91.53
2019-01-05T15:35:21.297Z,91.32
2019-01-05T15:37:51.467Z,91.49
2019-01-05T15:40:33.519Z,91.91
2019-01-05T15:43:19.758Z,92.01
2019-01-05T15:45:52.260Z,92.05
2019-01-05T15:48:37.290Z,92.24
2019-01-05T15:51:16.082Z,92.16
2019-01-05T15:53:52.418Z,92.02
2019-01-05T15:56:38.919Z,92.05
2019-01-05T15:59:21.054Z,92.41
2019-01-05T16:01:51.157Z,92.64
2019-01-05T16:04:36.346Z,92.34
2019-01-05T16:07:06.426Z,92.54
2019-01-05T16:09:36.593Z,92.68
2019-01-05T16:12:09.086Z,92.76
2019-01-05T16:14:41.589Z,92.49
2019-01-05T16:17:11.647Z,92.53
2019-01-05T16:19:41.785Z,92.59
2019-01-05T16:22:28.656Z,92.16
2019-01-05T16:24:58.729Z,92.15
2019-01-05T16:27:31.714Z,92.09
2019-01-05T16:30:04.264Z,91.98
2019-01-05T16:32:34.316Z,91.76
2019-01-05T16:35:07.117Z,91.60
2019-01-05T16:37:53.606Z,91.63
2019-01-05T16:40:40.338Z,91.36
2019-01-05T16:43:16.416Z,90.99
2019-01-05T16:45:49.359Z,90.97
2019-01-05T16:48:37.771Z,90.87
2019-01-05T16:51:22.940Z,90.74
2019-01-05T16:53:59.165Z,90.90
2019-01-05T16:56:45.609Z,90.89
2019-01-05T16:59:30.947Z,90.98
2019-01-05T17:02:01.076Z,90.81
2019-01-05T17:04:36.945Z,90.86
2019-01-05T17:07:23.358Z,91.02
2019-01-05T17:09:53.486Z,91.11
2019-01-05T17:12:40.104Z,91.15
2019-01-05T17:15:10.224Z,91.23
2019-01-05T17:17:46.324Z,91.21
2019-01-05T17:20:28.032Z,91.35
2019-01-05T17:23:14.015Z,91.41
2019-01-05T17:26:02.386Z,91.52
2019-01-05T17:28:47.592Z,91.22
2019-01-05T17:31:33.663Z,91.11
2019-01-05T17:34:18.578Z,91.27
2019-01-05T17:36:57.731Z,90.91
2019-01-05T17:39:27.845Z,91.07
2019-01-05T17:41:57.929Z,91.06
2019-01-05T17:44:28.149Z,91.00
2019-01-05T17:47:10.503Z,91.02
2019-01-05T17:49:40.653Z,91.33
2019-01-05T17:52:27.070Z,91.26
2019-01-05T17:55:06.045Z,91.21
2019-01-05T17:57:52.534Z,91.24
2019-01-05T18:00:25.394Z,91.26
2019-01-05T18:03:11.366Z,91.13
2019-01-05T18:05:41.480Z,91.04
2019-01-05T18:08:11.553Z,91.13
2019-01-05T18:10:44.611Z,91.13
2019-01-05T18:13:14.785Z,91.10
2019-01-05T18:15:52.392Z,90.98
2019-01-05T18:18:31.497Z,90.95
2019-01-05T18:21:14.073Z,90.51
2019-01-05T18:23:49.362Z,90.63
2019-01-05T18:26:31.853Z,90.74
2019-01-05T18:29:10.757Z,90.97
2019-01-05T18:31:58.682Z,90.93
2019-01-05T18:34:46.542Z,90.83
2019-01-05T18:37:25.371Z,90.93
2019-01-05T18:40:01.159Z,90.97
2019-01-05T18:42:43.403Z,91.23
2019-01-05T18:45:29.505Z,91.37
2019-01-05T18:48:02.329Z,91.33
2019-01-05T18:50:38.591Z,91.27
2019-01-05T18:53:25.020Z,91.43
2019-01-05T18:56:07.095Z,91.46
2019-01-05T18:58:53.424Z,91.52
2019-01-05T19:01:23.527Z,91.54
2019-01-05T19:04:02.631Z,91.48
2019-01-05T19:06:48.569Z,91.43
2019-01-05T19:09:35.046Z,91.40
2019-01-05T19:12:14.421Z,91.44
2019-01-05T19:14:50.256Z,91.52
2019-01-05T19:17:23.221Z,91.26
2019-01-05T19:19:53.360Z,91.41
2019-01-05T19:22:32.431Z,91.24
2019-01-05T19:25:18.468Z,91.23
2019-01-05T19:27:48.565Z,91.24
2019-01-05T19:30:33.423Z,90.98
2019-01-05T19:33:12.271Z,91.08
2019-01-05T19:35:45.682Z,90.97
2019-01-05T19:38:32.222Z,91.24
2019-01-05T19:41:17.367Z,91.47
2019-01-05T19:43:50.413Z,91.45
2019-01-05T19:46:36.983Z,91.06
2019-01-05T19:49:12.894Z,91.07
2019-01-05T19:51:45.886Z,91.07
2019-01-05T19:54:25.398Z,90.91
2019-01-05T19:57:13.040Z,91.07
2019-01-05T19:59:59.088Z,91.15
2019-01-05T20:02:29.137Z,91.07
2019-01-05T20:05:15.231Z,90.98
2019-01-05T20:07:45.309Z,90.88
2019-01-05T20:10:15.481Z,90.89
2019-01-05T20:13:01.545Z,90.76
2019-01-05T20:15:37.495Z,90.96
2019-01-05T20:18:07.585Z,90.80
2019-01-05T20:20:37.691Z,90.77
2019-01-05T20:23:13.347Z,90.76
2019-01-05T20:25:43.455Z,91.05
2019-01-05T20:28:25.484Z,91.35
2019-01-05T20:30:55.680Z,91.56
2019-01-05T20:33:43.916Z,91.36
2019-01-05T20:36:19.696Z,91.58
2019-01-05T20:38:49.765Z,91.85
2019-01-05T20:41:19.863Z,92.04
2019-01-05T20:43:49.937Z,91.97
2019-01-05T20:46:35.441Z,91.93
2019-01-05T20:49:05.639Z,91.90
2019-01-05T20:51:51.874Z,92.34
2019-01-05T20:54:38.053Z,92.34
2019-01-05T20:57:23.237Z,92.18
2019-01-05T21:00:15.125Z,92.38
2019-01-05T21:03:00.343Z,92.41
2019-01-05T21:05:45.764Z,92.38
2019-01-05T21:08:15.919Z,92.20
2019-01-05T21:10:58.427Z,92.19
2019-01-05T21:13:43.688Z,92.32
2019-01-05T21:16:32.167Z,92.24
2019-01-05T21:19:04.680Z,92.32
2019-01-05T21:21:51.192Z,92.37
2019-01-05T21:24:37.580Z,92.32
2019-01-05T21:27:10.414Z,92.30
2019-01-05T21:29:52.754Z,92.57
2019-01-05T21:32:39.199Z,92.69
2019-01-05T21:35:09.436Z,92.88
2019-01-05T21:37:45.758Z,92.96
2019-01-05T21:40:24.932Z,93.08
2019-01-05T21:43:04.066Z,93.10
2019-01-05T21:45:52.378Z,93.00
2019-01-05T21:48:39.068Z,92.87
2019-01-05T21:51:25.087Z,92.75
2019-01-05T21:54:10.628Z,92.73
2019-01-05T21:56:56.845Z,92.56
2019-01-05T21:59:38.875Z,92.63
2019-01-05T22:02:08.923Z,92.61
2019-01-05T22:04:50.736Z,92.54
2019-01-05T22:07:27.102Z,92.51
2019-01-05T22:10:15.308Z,92.52
2019-01-05T22:12:45.375Z,92.67
2019-01-05T22:15:15.596Z,92.50
2019-01-05T22:17:48.369Z,92.48
2019-01-05T22:20:18.477Z,92.51
2019-01-05T22:23:03.633Z,92.32
2019-01-05T22:25:45.861Z,92.41
2019-01-05T22:28:27.857Z,92.51
2019-01-05T22:30:58.008Z,92.52
2019-01-05T22:33:28.140Z,92.68
2019-01-05T22:36:14.463Z,92.60
2019-01-05T22:38:53.584Z,92.53
2019-01-05T22:41:26.453Z,92.36
2019-01-05T22:43:59.335Z,92.31
2019-01-05T22:46:29.472Z,92.29
2019-01-05T22:48:59.686Z,92.16
2019-01-05T22:51:41.682Z,91.93
2019-01-05T22:54:14.189Z,92.04
2019-01-05T22:56:53.427Z,91.92
2019-01-05T22:59:23.583Z,91.87
2019-01-05T23:01:53.679Z,91.81
2019-01-05T23:04:39.200Z,91.65
2019-01-05T23:07:17.934Z,91.44
2019-01-05T23:09:50.868Z,91.46
2019-01-05T23:12:35.966Z,91.31
2019-01-05T23:15:09.452Z,91.38
2019-01-05T23:17:48.870Z,91.25
2019-01-05T23:20:37.479Z,91.10
2019-01-05T23:23:25.778Z,91.19
2019-01-05T23:25:58.832Z,91.06
2019-01-05T23:28:34.436Z,90.92
2019-01-05T23:31:13.385Z,90.67
2019-01-05T23:33:46.179Z,90.66
2019-01-05T23:36:25.131Z,90.60
2019-01-05T23:38:57.991Z,90.72
2019-01-05T23:41:28.059Z,90.77
2019-01-05T23:44:14.360Z,90.85
2019-01-05T23:46:44.408Z,90.68
2019-01-05T23:49:20.415Z,90.69
2019-01-05T23:51:59.644Z,90.70
2019-01-05T23:54:29.737Z,90.83
2019-01-05T23:56:59.873Z,90.62
2019-01-05T23:59:46.195Z,90.62
